sensor_id;sensor_type;location;lat;lon;timestamp;pressure;altitude;pressure_sealevel;temperature;humidity
60307;BME280;46155;52.364;6.580;2023-03-31T03:03:44;99728.34;;;9.81;100.00
60307;BME280;46155;52.364;6.580;2023-03-31T03:12:15;99698.53;;;9.79;100.00
60307;BME280;46155;52.364;6.580;2023-03-31T03:17:18;99698.00;;;9.86;100.00
60307;BME280;46155;52.364;6.580;2023-03-31T03:19:51;99697.16;;;9.87;100.00
60307;BME280;46155;52.364;6.580;2023-03-31T03:22:18;99678.06;;;9.90;100.00
60307;BME280;46155;52.364;6.580;2023-03-31T03:24:43;99674.69;;;9.92;100.00
60307;BME280;46155;52.364;6.580;2023-03-31T03:27:08;99664.34;;;9.95;100.00
60307;BME280;46155;52.364;6.580;2023-03-31T03:29:33;99667.91;;;9.97;100.00
60307;BME280;46155;52.364;6.580;2023-03-31T03:31:59;99667.16;;;10.00;100.00
60307;BME280;46155;52.364;6.580;2023-03-31T03:34:24;99651.28;;;9.97;100.00
60307;BME280;46155;52.364;6.580;2023-03-31T03:36:51;99648.75;;;9.98;100.00
60307;BME280;46155;52.364;6.580;2023-03-31T03:39:16;99637.25;;;9.96;100.00
60307;BME280;46155;52.364;6.580;2023-03-31T03:41:41;99633.69;;;9.94;100.00
60307;BME280;46155;52.364;6.580;2023-03-31T03:44:07;99630.88;;;9.90;100.00
60307;BME280;46155;52.364;6.580;2023-03-31T03:46:32;99619.41;;;9.88;100.00
60307;BME280;46155;52.364;6.580;2023-03-31T03:48:57;99614.91;;;9.85;100.00
60307;BME280;46155;52.364;6.580;2023-03-31T03:51:23;99614.78;;;9.82;100.00
60307;BME280;46155;52.364;6.580;2023-03-31T03:53:48;99616.31;;;9.77;100.00
60307;BME280;46155;52.364;6.580;2023-03-31T03:56:13;99608.47;;;9.77;100.00
60307;BME280;46155;52.364;6.580;2023-03-31T03:58:39;99605.97;;;9.80;100.00
60307;BME280;46155;52.364;6.580;2023-03-31T04:01:04;99597.06;;;9.76;100.00
60307;BME280;46155;52.364;6.580;2023-03-31T04:03:30;99597.13;;;9.78;100.00
60307;BME280;46155;52.364;6.580;2023-03-31T04:05:56;99595.19;;;9.74;100.00
60307;BME280;46155;52.364;6.580;2023-03-31T04:08:22;99590.13;;;9.77;100.00
60307;BME280;46155;52.364;6.580;2023-03-31T04:10:49;99584.88;;;9.77;100.00
60307;BME280;46155;52.364;6.580;2023-03-31T04:13:16;99589.19;;;9.76;100.00
60307;BME280;46155;52.364;6.580;2023-03-31T04:15:42;99578.53;;;9.72;100.00
60307;BME280;46155;52.364;6.580;2023-03-31T04:18:07;99573.16;;;9.69;100.00
60307;BME280;46155;52.364;6.580;2023-03-31T04:20:35;99566.25;;;9.71;100.00
60307;BME280;46155;52.364;6.580;2023-03-31T04:23:02;99558.25;;;9.68;100.00
60307;BME280;46155;52.364;6.580;2023-03-31T04:25:30;99554.81;;;9.69;100.00
60307;BME280;46155;52.364;6.580;2023-03-31T04:27:55;99546.94;;;9.69;100.00
60307;BME280;46155;52.364;6.580;2023-03-31T04:30:22;99547.00;;;9.70;100.00
60307;BME280;46155;52.364;6.580;2023-03-31T04:32:50;99546.13;;;9.70;100.00
60307;BME280;46155;52.364;6.580;2023-03-31T04:35:16;99534.84;;;9.72;100.00
60307;BME280;46155;52.364;6.580;2023-03-31T04:37:43;99531.47;;;9.75;100.00
60307;BME280;46155;52.364;6.580;2023-03-31T04:40:09;99525.34;;;9.74;100.00
60307;BME280;46155;52.364;6.580;2023-03-31T04:42:34;99524.44;;;9.74;100.00
60307;BME280;46155;52.364;6.580;2023-03-31T04:45:00;99517.44;;;9.73;100.00
60307;BME280;46155;52.364;6.580;2023-03-31T04:47:26;99514.03;;;9.75;100.00
60307;BME280;46155;52.364;6.580;2023-03-31T04:49:51;99504.31;;;9.73;100.00
60307;BME280;46155;52.364;6.580;2023-03-31T04:52:16;99505.22;;;9.73;100.00
60307;BME280;46155;52.364;6.580;2023-03-31T04:54:41;99502.66;;;9.75;100.00
60307;BME280;46155;52.364;6.580;2023-03-31T04:57:07;99495.47;;;9.71;100.00
60307;BME280;46155;52.364;6.580;2023-03-31T04:59:32;99492.78;;;9.69;100.00
60307;BME280;46155;52.364;6.580;2023-03-31T05:01:57;99488.47;;;9.70;100.00
60307;BME280;46155;52.364;6.580;2023-03-31T05:04:23;99486.59;;;9.67;100.00
60307;BME280;46155;52.364;6.580;2023-03-31T05:06:48;99481.44;;;9.69;100.00
60307;BME280;46155;52.364;6.580;2023-03-31T05:09:14;99476.94;;;9.66;100.00
60307;BME280;46155;52.364;6.580;2023-03-31T05:11:40;99469.91;;;9.65;100.00
60307;BME280;46155;52.364;6.580;2023-03-31T05:14:05;99461.28;;;9.68;100.00
60307;BME280;46155;52.364;6.580;2023-03-31T05:16:30;99459.41;;;9.65;100.00
60307;BME280;46155;52.364;6.580;2023-03-31T05:18:56;99451.50;;;9.63;100.00
60307;BME280;46155;52.364;6.580;2023-03-31T05:21:21;99430.41;;;9.60;100.00
60307;BME280;46155;52.364;6.580;2023-03-31T05:23:47;99425.81;;;9.55;100.00
60307;BME280;46155;52.364;6.580;2023-03-31T05:26:13;99423.19;;;9.55;100.00
60307;BME280;46155;52.364;6.580;2023-03-31T05:28:38;99419.41;;;9.48;100.00
60307;BME280;46155;52.364;6.580;2023-03-31T05:31:05;99408.94;;;9.48;100.00
60307;BME280;46155;52.364;6.580;2023-03-31T05:33:31;99411.47;;;9.46;100.00
60307;BME280;46155;52.364;6.580;2023-03-31T05:35:57;99407.28;;;9.50;100.00
60307;BME280;46155;52.364;6.580;2023-03-31T05:38:25;99398.56;;;9.51;100.00
60307;BME280;46155;52.364;6.580;2023-03-31T05:40:53;99398.56;;;9.51;100.00
60307;BME280;46155;52.364;6.580;2023-03-31T05:43:18;99392.31;;;9.47;100.00
60307;BME280;46155;52.364;6.580;2023-03-31T05:45:44;99392.31;;;9.47;100.00
60307;BME280;46155;52.364;6.580;2023-03-31T05:48:09;99384.28;;;9.43;100.00
60307;BME280;46155;52.364;6.580;2023-03-31T05:50:34;99379.09;;;9.44;100.00
60307;BME280;46155;52.364;6.580;2023-03-31T05:53:00;99376.47;;;9.44;100.00
60307;BME280;46155;52.364;6.580;2023-03-31T05:55:25;99361.72;;;9.46;100.00
60307;BME280;46155;52.364;6.580;2023-03-31T05:57:50;99366.19;;;9.49;100.00
60307;BME280;46155;52.364;6.580;2023-03-31T06:00:16;99358.16;;;9.44;100.00
60307;BME280;46155;52.364;6.580;2023-03-31T06:02:42;99344.94;;;9.41;100.00
60307;BME280;46155;52.364;6.580;2023-03-31T06:05:07;99342.38;;;9.43;100.00
60307;BME280;46155;52.364;6.580;2023-03-31T06:07:32;99338.88;;;9.44;100.00
60307;BME280;46155;52.364;6.580;2023-03-31T06:09:58;99330.22;;;9.45;100.00
60307;BME280;46155;52.364;6.580;2023-03-31T06:12:23;99324.97;;;9.45;100.00
60307;BME280;46155;52.364;6.580;2023-03-31T06:14:48;99317.94;;;9.44;100.00
60307;BME280;46155;52.364;6.580;2023-03-31T06:17:14;99323.19;;;9.44;100.00
60307;BME280;46155;52.364;6.580;2023-03-31T06:19:39;99314.38;;;9.42;100.00
60307;BME280;46155;52.364;6.580;2023-03-31T06:22:04;99318.84;;;9.44;100.00
60307;BME280;46155;52.364;6.580;2023-03-31T06:24:30;99309.19;;;9.43;100.00
60307;BME280;46155;52.364;6.580;2023-03-31T06:26:55;99303.13;;;9.44;100.00
60307;BME280;46155;52.364;6.580;2023-03-31T06:29:20;99297.25;;;9.50;100.00
60307;BME280;46155;52.364;6.580;2023-03-31T06:31:46;99299.88;;;9.50;100.00
60307;BME280;46155;52.364;6.580;2023-03-31T06:34:11;99300.13;;;9.56;100.00
60307;BME280;46155;52.364;6.580;2023-03-31T06:36:36;99295.00;;;9.59;100.00
60307;BME280;46155;52.364;6.580;2023-03-31T06:39:02;99295.09;;;9.62;100.00
60307;BME280;46155;52.364;6.580;2023-03-31T06:41:27;99290.84;;;9.64;100.00
60307;BME280;46155;52.364;6.580;2023-03-31T06:43:52;99285.47;;;9.61;100.00
60307;BME280;46155;52.364;6.580;2023-03-31T06:46:18;99291.53;;;9.60;100.00
60307;BME280;46155;52.364;6.580;2023-03-31T06:48:43;99278.22;;;9.54;100.00
60307;BME280;46155;52.364;6.580;2023-03-31T06:51:09;99280.25;;;9.61;100.00
60307;BME280;46155;52.364;6.580;2023-03-31T06:53:35;99269.66;;;9.58;100.00
60307;BME280;46155;52.364;6.580;2023-03-31T06:56:01;99267.72;;;9.54;100.00
60307;BME280;46155;52.364;6.580;2023-03-31T06:58:27;99260.69;;;9.53;100.00
60307;BME280;46155;52.364;6.580;2023-03-31T07:00:52;99262.50;;;9.54;100.00
60307;BME280;46155;52.364;6.580;2023-03-31T07:03:18;99262.59;;;9.57;100.00
60307;BME280;46155;52.364;6.580;2023-03-31T07:05:50;99259.28;;;9.61;100.00
60307;BME280;46155;52.364;6.580;2023-03-31T07:08:17;99254.03;;;9.61;100.00
60307;BME280;46155;52.364;6.580;2023-03-31T07:10:43;99256.06;;;9.69;100.00
60307;BME280;46155;52.364;6.580;2023-03-31T07:13:12;99250.19;;;9.74;100.00
60307;BME280;46155;52.364;6.580;2023-03-31T07:15:37;99249.16;;;9.71;100.00
60307;BME280;46155;52.364;6.580;2023-03-31T07:18:03;99244.03;;;9.74;100.00
60307;BME280;46155;52.364;6.580;2023-03-31T07:20:29;99246.91;;;9.80;100.00
60307;BME280;46155;52.364;6.580;2023-03-31T07:22:54;99233.41;;;9.71;100.00
60307;BME280;46155;52.364;6.580;2023-03-31T07:25:20;99238.78;;;9.74;100.00
60307;BME280;46155;52.364;6.580;2023-03-31T07:27:45;99242.38;;;9.76;100.00
60307;BME280;46155;52.364;6.580;2023-03-31T07:30:14;99237.13;;;9.76;100.00
60307;BME280;46155;52.364;6.580;2023-03-31T07:32:39;99240.69;;;9.78;100.00
60307;BME280;46155;52.364;6.580;2023-03-31T07:35:09;99237.25;;;9.79;100.00
60307;BME280;46155;52.364;6.580;2023-03-31T07:37:39;99236.41;;;9.80;100.00
60307;BME280;46155;52.364;6.580;2023-03-31T07:40:07;99229.59;;;9.85;100.00
60307;BME280;46155;52.364;6.580;2023-03-31T07:42:33;99234.19;;;9.91;100.00
60307;BME280;46155;52.364;6.580;2023-03-31T07:44:59;99226.63;;;9.98;100.00
60307;BME280;46155;52.364;6.580;2023-03-31T07:47:25;99236.72;;;10.12;100.00
60307;BME280;46155;52.364;6.580;2023-03-31T07:49:50;99229.94;;;10.17;100.00
60307;BME280;46155;52.364;6.580;2023-03-31T07:52:16;99223.25;;;10.25;100.00
60307;BME280;46155;52.364;6.580;2023-03-31T07:54:44;99225.03;;;10.26;100.00
60307;BME280;46155;52.364;6.580;2023-03-31T07:57:09;99225.25;;;10.32;100.00
60307;BME280;46155;52.364;6.580;2023-03-31T07:59:34;99220.44;;;10.43;100.00
60307;BME280;46155;52.364;6.580;2023-03-31T08:02:00;99222.41;;;10.49;100.00
60307;BME280;46155;52.364;6.580;2023-03-31T08:04:25;99217.16;;;10.49;100.00
60307;BME280;46155;52.364;6.580;2023-03-31T08:06:50;99210.41;;;10.57;100.00
60307;BME280;46155;52.364;6.580;2023-03-31T08:09:16;99200.72;;;10.55;100.00
60307;BME280;46155;52.364;6.580;2023-03-31T08:11:41;99213.09;;;10.59;100.00
60307;BME280;46155;52.364;6.580;2023-03-31T08:14:07;99212.31;;;10.61;100.00
60307;BME280;46155;52.364;6.580;2023-03-31T08:16:33;99202.28;;;10.49;100.00
60307;BME280;46155;52.364;6.580;2023-03-31T08:18:58;99214.56;;;10.50;100.00
60307;BME280;46155;52.364;6.580;2023-03-31T08:21:23;99199.75;;;10.53;100.00
60307;BME280;46155;52.364;6.580;2023-03-31T08:23:49;99199.72;;;10.51;100.00
60307;BME280;46155;52.364;6.580;2023-03-31T08:26:17;99199.88;;;10.56;100.00
60307;BME280;46155;52.364;6.580;2023-03-31T08:28:43;99193.84;;;10.58;100.00
60307;BME280;46155;52.364;6.580;2023-03-31T08:31:08;99201.81;;;10.61;100.00
60307;BME280;46155;52.364;6.580;2023-03-31T08:33:34;99200.88;;;10.59;100.00
60307;BME280;46155;52.364;6.580;2023-03-31T08:36:04;99186.06;;;10.61;100.00
60307;BME280;46155;52.364;6.580;2023-03-31T08:38:31;99193.00;;;10.59;100.00
60307;BME280;46155;52.364;6.580;2023-03-31T08:40:58;99201.72;;;10.58;100.00
60307;BME280;46155;52.364;6.580;2023-03-31T08:43:29;99178.63;;;10.48;100.00
60307;BME280;46155;52.364;6.580;2023-03-31T08:45:56;99192.13;;;10.34;100.00
60307;BME280;46155;52.364;6.580;2023-03-31T08:48:30;99197.63;;;10.41;100.00
60307;BME280;46155;52.364;6.580;2023-03-31T08:51:03;99193.72;;;10.31;100.00
60307;BME280;46155;52.364;6.580;2023-03-31T08:53:43;99192.00;;;10.31;100.00
60307;BME280;46155;52.364;6.580;2023-03-31T08:56:16;99179.59;;;10.27;100.00
60307;BME280;46155;52.364;6.580;2023-03-31T08:58:45;99188.25;;;10.25;100.00
60307;BME280;46155;52.364;6.580;2023-03-31T09:01:15;99190.09;;;10.27;100.00
60307;BME280;46155;52.364;6.580;2023-03-31T09:06:57;99175.38;;;10.31;100.00
60307;BME280;46155;52.364;6.580;2023-03-31T09:12:39;99169.09;;;10.27;100.00
60307;BME280;46155;52.364;6.580;2023-03-31T09:15:12;99177.34;;;10.37;100.00
60307;BME280;46155;52.364;6.580;2023-03-31T09:17:45;99174.94;;;10.43;100.00
60307;BME280;46155;52.364;6.580;2023-03-31T09:20:21;99171.59;;;10.47;100.00
60307;BME280;46155;52.364;6.580;2023-03-31T09:22:51;99165.56;;;10.49;100.00
60307;BME280;46155;52.364;6.580;2023-03-31T09:25:24;99164.78;;;10.52;100.00
60307;BME280;46155;52.364;6.580;2023-03-31T09:27:51;99163.28;;;10.60;100.00
60307;BME280;46155;52.364;6.580;2023-03-31T09:30:26;99164.97;;;10.58;100.00
60307;BME280;46155;52.364;6.580;2023-03-31T09:33:27;99162.19;;;10.54;100.00
60307;BME280;46155;52.364;6.580;2023-03-31T09:35:57;99157.78;;;10.53;100.00
60307;BME280;46155;52.364;6.580;2023-03-31T09:38:23;99156.16;;;10.56;100.00
60307;BME280;46155;52.364;6.580;2023-03-31T09:40:48;99157.69;;;10.49;100.00
60307;BME280;46155;52.364;6.580;2023-03-31T09:43:21;99146.31;;;10.49;100.00
60307;BME280;46155;52.364;6.580;2023-03-31T09:45:47;99149.91;;;10.53;100.00
60307;BME280;46155;52.364;6.580;2023-03-31T09:48:20;99147.25;;;10.51;100.00
60307;BME280;46155;52.364;6.580;2023-03-31T09:50:56;99141.09;;;10.50;100.00
60307;BME280;46155;52.364;6.580;2023-03-31T09:53:46;99136.75;;;10.51;100.00
60307;BME280;46155;52.364;6.580;2023-03-31T09:56:37;99132.97;;;10.43;100.00
60307;BME280;46155;52.364;6.580;2023-03-31T09:59:18;99137.28;;;10.41;100.00
60307;BME280;46155;52.364;6.580;2023-03-31T10:01:45;99138.97;;;10.40;100.00
60307;BME280;46155;52.364;6.580;2023-03-31T10:04:43;99133.78;;;10.42;100.00
60307;BME280;46155;52.364;6.580;2023-03-31T10:07:10;99125.91;;;10.42;100.00
60307;BME280;46155;52.364;6.580;2023-03-31T10:09:37;99122.47;;;10.43;100.00
60307;BME280;46155;52.364;6.580;2023-03-31T10:12:08;99126.84;;;10.42;100.00
60307;BME280;46155;52.364;6.580;2023-03-31T10:14:41;99124.25;;;10.44;100.00
60307;BME280;46155;52.364;6.580;2023-03-31T10:17:13;99126.19;;;10.49;100.00
60307;BME280;46155;52.364;6.580;2023-03-31T10:19:46;99123.00;;;10.58;100.00
60307;BME280;46155;52.364;6.580;2023-03-31T10:24:48;99113.19;;;10.80;100.00
60307;BME280;46155;52.364;6.580;2023-03-31T10:29:45;99074.38;;;10.70;100.00
60307;BME280;46155;52.364;6.580;2023-03-31T10:32:23;99099.91;;;11.02;100.00
60307;BME280;46155;52.364;6.580;2023-03-31T10:34:49;99104.50;;;11.10;100.00
60307;BME280;46155;52.364;6.580;2023-03-31T10:37:18;99096.84;;;11.16;100.00
60307;BME280;46155;52.364;6.580;2023-03-31T10:39:45;99100.22;;;11.12;100.00
60307;BME280;46155;52.364;6.580;2023-03-31T10:42:21;99086.94;;;11.07;100.00
60307;BME280;46155;52.364;6.580;2023-03-31T10:44:47;99084.06;;;10.99;100.00
60307;BME280;46155;52.364;6.580;2023-03-31T10:49:39;99088.00;;;11.14;100.00
60307;BME280;46155;52.364;6.580;2023-03-31T10:52:18;99089.16;;;11.22;100.00
60307;BME280;46155;52.364;6.580;2023-03-31T10:55:11;99086.91;;;11.34;100.00
60307;BME280;46155;52.364;6.580;2023-03-31T10:57:50;99093.28;;;11.43;100.00
60307;BME280;46155;52.364;6.580;2023-03-31T11:00:33;99085.41;;;11.43;100.00
60307;BME280;46155;52.364;6.580;2023-03-31T11:06:11;99081.44;;;11.57;100.00
60307;BME280;46155;52.364;6.580;2023-03-31T11:11:41;99073.59;;;11.59;100.00
60307;BME280;46155;52.364;6.580;2023-03-31T11:17:22;99073.78;;;11.66;100.00
60307;BME280;46155;52.364;6.580;2023-03-31T11:20:07;99081.63;;;11.65;100.00
60307;BME280;46155;52.364;6.580;2023-03-31T11:22:51;99076.47;;;11.68;100.00
60307;BME280;46155;52.364;6.580;2023-03-31T11:30:51;99081.00;;;11.74;100.00
60307;BME280;46155;52.364;6.580;2023-03-31T11:38:31;99057.78;;;12.21;100.00
60307;BME280;46155;52.364;6.580;2023-03-31T11:41:07;99060.78;;;12.35;100.00
60307;BME280;46155;52.364;6.580;2023-03-31T11:46:14;99056.03;;;12.55;100.00
60307;BME280;46155;52.364;6.580;2023-03-31T11:48:53;99058.59;;;12.52;100.00
60307;BME280;46155;52.364;6.580;2023-03-31T11:51:49;99056.69;;;12.46;100.00
60307;BME280;46155;52.364;6.580;2023-03-31T11:54:19;99048.53;;;12.37;100.00
60307;BME280;46155;52.364;6.580;2023-03-31T11:56:48;99054.78;;;12.40;100.00
60307;BME280;46155;52.364;6.580;2023-03-31T11:59:15;99054.78;;;12.40;100.00
60307;BME280;46155;52.364;6.580;2023-03-31T12:01:47;99051.06;;;12.32;100.00
60307;BME280;46155;52.364;6.580;2023-03-31T12:04:34;99049.28;;;12.31;100.00
60307;BME280;46155;52.364;6.580;2023-03-31T12:07:08;99044.97;;;12.33;100.00
60307;BME280;46155;52.364;6.580;2023-03-31T12:12:28;99041.75;;;12.12;100.00
60307;BME280;46155;52.364;6.580;2023-03-31T12:17:35;99048.66;;;12.07;100.00
60307;BME280;46155;52.364;6.580;2023-03-31T12:20:05;99031.00;;;12.02;100.00
60307;BME280;46155;52.364;6.580;2023-03-31T12:22:43;99037.22;;;12.06;100.00
60307;BME280;46155;52.364;6.580;2023-03-31T12:25:13;99036.56;;;12.15;100.00
60307;BME280;46155;52.364;6.580;2023-03-31T12:27:44;99028.97;;;12.26;100.00
60307;BME280;46155;52.364;6.580;2023-03-31T12:32:54;99029.31;;;12.39;100.00
60307;BME280;46155;52.364;6.580;2023-03-31T12:41:09;99025.88;;;12.42;100.00
60307;BME280;46155;52.364;6.580;2023-03-31T12:44:09;99019.88;;;12.48;100.00
60307;BME280;46155;52.364;6.580;2023-03-31T12:55:16;99021.03;;;12.59;100.00
60307;BME280;46155;52.364;6.580;2023-03-31T12:57:45;99008.97;;;12.69;100.00
60307;BME280;46155;52.364;6.580;2023-03-31T13:00:22;99004.69;;;12.74;100.00
60307;BME280;46155;52.364;6.580;2023-03-31T13:02:48;99005.63;;;12.76;100.00
60307;BME280;46155;52.364;6.580;2023-03-31T13:08:08;99007.25;;;12.71;100.00
60307;BME280;46155;52.364;6.580;2023-03-31T13:10:56;98992.97;;;12.61;100.00
60307;BME280;46155;52.364;6.580;2023-03-31T13:13:22;98992.06;;;12.59;100.00
60307;BME280;46155;52.364;6.580;2023-03-31T13:15:53;98986.56;;;12.50;100.00
60307;BME280;46155;52.364;6.580;2023-03-31T13:18:20;98989.13;;;12.47;100.00
60307;BME280;46155;52.364;6.580;2023-03-31T13:20:57;98987.50;;;12.50;100.00
60307;BME280;46155;52.364;6.580;2023-03-31T13:23:24;98979.63;;;12.52;100.00
60307;BME280;46155;52.364;6.580;2023-03-31T13:25:56;98992.00;;;12.56;100.00
60307;BME280;46155;52.364;6.580;2023-03-31T13:31:10;98974.63;;;12.64;100.00
60307;BME280;46155;52.364;6.580;2023-03-31T13:33:55;98975.50;;;12.63;100.00
60307;BME280;46155;52.364;6.580;2023-03-31T13:42:59;98984.66;;;12.43;100.00
60307;BME280;46155;52.364;6.580;2023-03-31T13:45:18;98982.88;;;12.42;100.00
60307;BME280;46155;52.364;6.580;2023-03-31T13:55:59;98979.28;;;12.38;100.00
60307;BME280;46155;52.364;6.580;2023-03-31T13:58:47;98974.00;;;12.36;100.00
60307;BME280;46155;52.364;6.580;2023-03-31T14:07:01;98979.31;;;12.39;100.00
60307;BME280;46155;52.364;6.580;2023-03-31T14:09:36;98981.09;;;12.40;100.00
60307;BME280;46155;52.364;6.580;2023-03-31T14:14:55;98963.72;;;12.49;100.00
60307;BME280;46155;52.364;6.580;2023-03-31T14:17:36;98956.94;;;12.58;100.00
60307;BME280;46155;52.364;6.580;2023-03-31T14:28:21;98960.53;;;12.62;100.00
60307;BME280;46155;52.364;6.580;2023-03-31T14:39:48;98944.88;;;12.68;100.00
60307;BME280;46155;52.364;6.580;2023-03-31T14:42:21;98949.31;;;12.69;100.00
60307;BME280;46155;52.364;6.580;2023-03-31T14:44:54;98944.00;;;12.68;100.00
60307;BME280;46155;52.364;6.580;2023-03-31T14:47:23;98940.59;;;12.72;100.00
60307;BME280;46155;52.364;6.580;2023-03-31T14:49:59;98946.72;;;12.72;100.00
60307;BME280;46155;52.364;6.580;2023-03-31T14:52:29;98946.63;;;12.68;100.00
60307;BME280;46155;52.364;6.580;2023-03-31T14:54:54;98937.75;;;12.64;100.00
60307;BME280;46155;52.364;6.580;2023-03-31T14:57:26;98935.72;;;12.51;100.00
60307;BME280;46155;52.364;6.580;2023-03-31T14:59:54;98936.56;;;12.50;100.00
60307;BME280;46155;52.364;6.580;2023-03-31T15:02:31;98929.41;;;12.44;100.00
60307;BME280;46155;52.364;6.580;2023-03-31T15:04:58;98936.97;;;12.30;100.00
60307;BME280;46155;52.364;6.580;2023-03-31T15:07:25;98931.59;;;12.24;100.00
60307;BME280;46155;52.364;6.580;2023-03-31T15:09:52;98935.81;;;12.17;100.00
60307;BME280;46155;52.364;6.580;2023-03-31T15:12:19;98931.03;;;12.01;100.00
60307;BME280;46155;52.364;6.580;2023-03-31T15:14:49;98937.00;;;11.94;100.00
60307;BME280;46155;52.364;6.580;2023-03-31T15:17:21;98932.50;;;11.91;100.00
60307;BME280;46155;52.364;6.580;2023-03-31T15:19:55;98930.66;;;11.87;100.00
60307;BME280;46155;52.364;6.580;2023-03-31T15:22:24;98927.94;;;11.84;100.00
60307;BME280;46155;52.364;6.580;2023-03-31T15:24:51;98923.59;;;11.86;100.00
60307;BME280;46155;52.364;6.580;2023-03-31T15:27:40;98925.31;;;11.84;100.00
60307;BME280;46155;52.364;6.580;2023-03-31T15:30:13;98913.09;;;11.86;100.00
60307;BME280;46155;52.364;6.580;2023-03-31T15:32:41;98914.88;;;11.87;100.00
60307;BME280;46155;52.364;6.580;2023-03-31T15:35:18;98910.47;;;11.86;100.00
60307;BME280;46155;52.364;6.580;2023-03-31T15:37:45;98908.31;;;11.69;100.00
60307;BME280;46155;52.364;6.580;2023-03-31T15:40:21;98915.25;;;11.67;100.00
60307;BME280;46155;52.364;6.580;2023-03-31T15:42:48;98911.59;;;11.62;100.00
60307;BME280;46155;52.364;6.580;2023-03-31T15:47:51;98901.03;;;11.61;100.00
60307;BME280;46155;52.364;6.580;2023-03-31T15:50:20;98903.56;;;11.56;100.00
60307;BME280;46155;52.364;6.580;2023-03-31T15:52:50;98910.69;;;11.60;100.00
60307;BME280;46155;52.364;6.580;2023-03-31T15:55:38;98903.66;;;11.61;100.00
60307;BME280;46155;52.364;6.580;2023-03-31T15:58:12;98902.84;;;11.62;100.00
60307;BME280;46155;52.364;6.580;2023-03-31T16:03:25;98900.16;;;11.60;100.00
60307;BME280;46155;52.364;6.580;2023-03-31T16:05:57;98900.13;;;11.59;100.00
60307;BME280;46155;52.364;6.580;2023-03-31T16:08:41;98909.91;;;11.64;100.00
60307;BME280;46155;52.364;6.580;2023-03-31T16:11:14;98892.53;;;11.69;100.00
60307;BME280;46155;52.364;6.580;2023-03-31T16:13:46;98889.84;;;11.68;100.00
60307;BME280;46155;52.364;6.580;2023-03-31T16:16:16;98902.19;;;11.70;100.00
60307;BME280;46155;52.364;6.580;2023-03-31T16:18:46;98884.66;;;11.69;100.00
60307;BME280;46155;52.364;6.580;2023-03-31T16:21:19;98898.63;;;11.68;100.00
60307;BME280;46155;52.364;6.580;2023-03-31T16:23:50;98900.91;;;11.54;100.00
60307;BME280;46155;52.364;6.580;2023-03-31T16:26:22;98897.94;;;11.42;100.00
60307;BME280;46155;52.364;6.580;2023-03-31T16:28:50;98896.75;;;11.31;100.00
60307;BME280;46155;52.364;6.580;2023-03-31T16:31:28;98898.34;;;11.24;100.00
60307;BME280;46155;52.364;6.580;2023-03-31T16:33:55;98899.09;;;11.20;100.00
60307;BME280;46155;52.364;6.580;2023-03-31T16:36:21;98894.66;;;11.17;100.00
60307;BME280;46155;52.364;6.580;2023-03-31T16:38:46;98896.53;;;11.22;100.00
60307;BME280;46155;52.364;6.580;2023-03-31T16:41:12;98900.72;;;11.15;100.00
60307;BME280;46155;52.364;6.580;2023-03-31T16:43:39;98892.72;;;11.10;100.00
60307;BME280;46155;52.364;6.580;2023-03-31T16:46:05;98900.72;;;11.15;100.00
60307;BME280;46155;52.364;6.580;2023-03-31T16:48:30;98892.66;;;11.09;100.00
60307;BME280;46155;52.364;6.580;2023-03-31T16:50:59;98893.66;;;11.14;100.00
60307;BME280;46155;52.364;6.580;2023-03-31T16:53:31;98893.66;;;11.14;100.00
60307;BME280;46155;52.364;6.580;2023-03-31T16:55:58;98891.63;;;11.03;100.00
60307;BME280;46155;52.364;6.580;2023-03-31T16:58:24;98902.13;;;11.03;100.00
60307;BME280;46155;52.364;6.580;2023-03-31T17:00:50;98891.44;;;10.96;100.00
60307;BME280;46155;52.364;6.580;2023-03-31T17:03:15;98893.16;;;10.95;100.00
60307;BME280;46155;52.364;6.580;2023-03-31T17:05:43;98893.75;;;10.85;100.00
60307;BME280;46155;52.364;6.580;2023-03-31T17:08:09;98893.06;;;10.92;100.00
60307;BME280;46155;52.364;6.580;2023-03-31T17:10:36;98892.19;;;10.92;100.00
60307;BME280;46155;52.364;6.580;2023-03-31T17:13:02;98893.91;;;10.91;100.00
60307;BME280;46155;52.364;6.580;2023-03-31T17:15:27;98899.06;;;10.88;100.00
60307;BME280;46155;52.364;6.580;2023-03-31T17:17:56;98896.38;;;10.85;100.00
60307;BME280;46155;52.364;6.580;2023-03-31T17:20:23;98897.19;;;10.84;100.00
60307;BME280;46155;52.364;6.580;2023-03-31T17:22:49;98899.75;;;10.81;100.00
60307;BME280;46155;52.364;6.580;2023-03-31T17:25:14;98902.38;;;10.81;100.00
60307;BME280;46155;52.364;6.580;2023-03-31T17:27:40;98891.91;;;10.82;100.00
60307;BME280;46155;52.364;6.580;2023-03-31T17:30:06;98898.03;;;10.83;100.00
60307;BME280;46155;52.364;6.580;2023-03-31T17:32:33;98888.09;;;10.71;100.00
60307;BME280;46155;52.364;6.580;2023-03-31T17:34:58;98903.03;;;10.74;100.00
60307;BME280;46155;52.364;6.580;2023-03-31T17:37:23;98897.63;;;10.67;100.00
60307;BME280;46155;52.364;6.580;2023-03-31T17:39:50;98902.88;;;10.67;100.00
60307;BME280;46155;52.364;6.580;2023-03-31T17:42:15;98898.19;;;10.59;100.00
60307;BME280;46155;52.364;6.580;2023-03-31T17:44:41;98892.88;;;10.56;100.00
60307;BME280;46155;52.364;6.580;2023-03-31T17:47:07;98906.13;;;10.60;100.00
60307;BME280;46155;52.364;6.580;2023-03-31T17:49:33;98897.31;;;10.58;100.00
60307;BME280;46155;52.364;6.580;2023-03-31T17:51:59;98905.16;;;10.57;100.00
60307;BME280;46155;52.364;6.580;2023-03-31T17:54:24;98907.78;;;10.57;100.00
60307;BME280;46155;52.364;6.580;2023-03-31T17:56:50;98906.84;;;10.55;100.00
60307;BME280;46155;52.364;6.580;2023-03-31T17:59:17;98912.19;;;10.58;100.00
60307;BME280;46155;52.364;6.580;2023-03-31T18:01:43;98908.53;;;10.53;100.00
60307;BME280;46155;52.364;6.580;2023-03-31T18:04:09;98902.00;;;10.40;100.00